Davis, California
Current Conditions -  °F | °C
As of 7:55 PM on Saturday 20 Dec 2014 (Local Time) from KEDU Reporting Station
Overcast Overcast  
Wind Chill: 55°   Ceiling: 3400
Heat Index: 55°   Visibility: 5mi
Dew Point: 54°   Wind: 7mph
Humidity: 94%   Direction: 150°SSE
Pressure: 30.23"   Gusts: NA
Location:  38.55°N, 121.74°W
Report Text: KEDU 210355Z AUTO 15006KT 5SM OVC034 13/12 A3023 RMK AO1
Loading
Personal Weather Stations






























Interactive Weather Map New forecast layout! Learn more

10-Day Weather Forecast

Advertisements
Track Severe Weather on mobile